createdAt,value
2022-08-03T00:00:28.707Z,16.11
2022-08-03T00:03:30.593Z,16.02
2022-08-03T00:06:36.952Z,15.97
2022-08-03T00:09:39.134Z,15.96
2022-08-03T00:12:40.885Z,15.91
2022-08-03T00:15:43.379Z,15.89
2022-08-03T00:18:45.432Z,15.81
2022-08-03T00:21:47.245Z,15.80
2022-08-03T00:24:49.005Z,15.77
2022-08-03T00:27:50.861Z,15.71
2022-08-03T00:30:52.776Z,15.71
2022-08-03T00:33:58.166Z,15.69
2022-08-03T00:37:01.588Z,15.70
2022-08-03T00:40:04.159Z,15.70
2022-08-03T00:43:08.397Z,15.70
2022-08-03T00:46:10.421Z,15.68
2022-08-03T00:49:12.234Z,15.66
2022-08-03T00:52:15.487Z,15.67
2022-08-03T00:55:17.399Z,15.63
2022-08-03T00:58:19.498Z,15.65
2022-08-03T01:01:21.310Z,15.63
2022-08-03T01:04:23.126Z,15.63
2022-08-03T01:07:52.871Z,15.64
2022-08-03T01:11:15.735Z,15.62
2022-08-03T01:15:10.072Z,15.66
2022-08-03T01:18:25.914Z,15.61
2022-08-03T01:21:53.023Z,15.58
2022-08-03T01:25:07.366Z,15.51
2022-08-03T01:28:27.682Z,15.46
2022-08-03T01:33:02.784Z,15.44
2022-08-03T01:35:17.462Z,15.38
2022-08-03T01:38:33.645Z,15.30
2022-08-03T01:41:40.137Z,15.25
2022-08-03T01:44:44.260Z,15.26
2022-08-03T01:47:47.654Z,15.27
2022-08-03T01:50:51.301Z,15.24
2022-08-03T01:53:54.929Z,15.19
2022-08-03T01:56:59.034Z,15.13
2022-08-03T02:00:02.039Z,15.10
2022-08-03T02:03:13.863Z,15.09
2022-08-03T02:07:01.394Z,15.08
2022-08-03T02:09:41.637Z,15.02
2022-08-03T02:12:46.020Z,14.97
2022-08-03T02:15:49.321Z,14.95
2022-08-03T02:18:52.650Z,14.92
2022-08-03T02:21:57.408Z,14.89
2022-08-03T02:25:02.915Z,14.84
2022-08-03T02:28:11.709Z,14.80
2022-08-03T02:31:17.087Z,14.77
2022-08-03T02:34:23.255Z,14.77
2022-08-03T02:37:27.699Z,14.76
2022-08-03T02:40:31.396Z,14.68
2022-08-03T02:43:39.092Z,14.67
2022-08-03T02:47:02.422Z,14.64
2022-08-03T02:50:05.182Z,14.61
2022-08-03T02:53:07.945Z,14.57
2022-08-03T02:56:11.747Z,14.54
2022-08-03T02:59:14.965Z,14.52
2022-08-03T03:02:18.407Z,14.48
2022-08-03T03:05:54.595Z,14.32
2022-08-03T03:08:42.692Z,14.22
2022-08-03T03:11:45.042Z,14.16
2022-08-03T03:14:46.869Z,14.16
2022-08-03T03:17:50.182Z,14.14
2022-08-03T03:20:53.253Z,14.20
2022-08-03T03:23:55.386Z,14.17
2022-08-03T03:26:57.998Z,14.18
2022-08-03T03:30:00.023Z,14.16
2022-08-03T03:33:02.931Z,14.10
2022-08-03T03:36:07.711Z,14.11
2022-08-03T03:39:15.941Z,14.18
2022-08-03T03:42:18.111Z,14.18
2022-08-03T03:45:21.795Z,14.17
2022-08-03T03:48:25.584Z,14.19
2022-08-03T03:51:27.357Z,14.25
2022-08-03T03:54:41.336Z,14.34
2022-08-03T03:57:43.030Z,14.40
2022-08-03T04:00:45.344Z,14.49
2022-08-03T04:03:47.179Z,14.55
2022-08-03T04:07:07.667Z,14.64
2022-08-03T04:10:35.550Z,14.73
2022-08-03T04:13:41.088Z,14.83
2022-08-03T04:16:49.219Z,14.87
2022-08-03T04:19:53.881Z,15.22
2022-08-03T04:23:00.070Z,16.52
2022-08-03T04:26:02.793Z,17.76
2022-08-03T04:29:06.646Z,18.58
2022-08-03T04:32:10.282Z,19.40
2022-08-03T04:35:12.129Z,19.68
2022-08-03T04:38:18.444Z,19.95
2022-08-03T04:41:23.085Z,19.25
2022-08-03T04:44:28.480Z,18.77
2022-08-03T04:47:33.193Z,18.26
2022-08-03T04:50:35.863Z,17.88
2022-08-03T04:53:41.086Z,17.50
2022-08-03T04:56:43.733Z,17.37
2022-08-03T04:59:45.502Z,17.38
2022-08-03T05:02:47.279Z,17.43
2022-08-03T05:05:49.933Z,17.65
2022-08-03T05:08:52.596Z,17.50
2022-08-03T05:11:54.345Z,17.20
2022-08-03T05:14:56.499Z,17.21
2022-08-03T05:17:58.386Z,17.18
2022-08-03T05:21:01.211Z,17.40
2022-08-03T05:24:03.080Z,17.28
2022-08-03T05:27:05.502Z,17.52
2022-08-03T05:30:29.787Z,17.70
2022-08-03T05:33:30.511Z,18.03
2022-08-03T05:36:32.282Z,18.31
2022-08-03T05:39:34.881Z,18.55
2022-08-03T05:42:39.495Z,18.60
2022-08-03T05:45:41.520Z,18.77
2022-08-03T05:48:43.535Z,18.57
2022-08-03T05:51:45.973Z,19.06
2022-08-03T05:54:56.678Z,19.26
2022-08-03T05:57:59.380Z,19.47
2022-08-03T06:01:01.090Z,19.60
2022-08-03T06:04:02.825Z,19.75
2022-08-03T06:07:04.562Z,19.80
2022-08-03T06:10:35.438Z,20.01
2022-08-03T06:13:29.443Z,20.04
2022-08-03T06:16:31.391Z,20.39
2022-08-03T06:19:33.092Z,20.48
2022-08-03T06:22:34.838Z,20.68
2022-08-03T06:25:36.938Z,20.75
2022-08-03T06:28:53.038Z,21.25
2022-08-03T06:31:55.646Z,21.42
2022-08-03T06:34:57.350Z,21.64
2022-08-03T06:37:59.262Z,21.73
2022-08-03T06:41:02.245Z,22.13
2022-08-03T06:44:04.664Z,22.10
2022-08-03T06:47:06.486Z,22.39
2022-08-03T06:50:16.207Z,22.46
2022-08-03T06:53:21.456Z,22.23
2022-08-03T06:56:23.403Z,22.55
2022-08-03T07:00:10.871Z,22.71
2022-08-03T07:02:47.409Z,22.78
2022-08-03T07:05:49.892Z,23.19
2022-08-03T07:08:54.498Z,23.18
2022-08-03T07:11:58.849Z,23.50
2022-08-03T07:15:03.168Z,23.42
2022-08-03T07:18:05.430Z,23.50
2022-08-03T07:21:09.131Z,23.46
2022-08-03T07:24:11.029Z,23.17
2022-08-03T07:27:12.762Z,23.68
2022-08-03T07:30:15.682Z,23.94
2022-08-03T07:33:17.526Z,24.44
2022-08-03T07:36:19.335Z,24.64
2022-08-03T07:39:21.042Z,24.84
2022-08-03T07:42:23.992Z,25.09
2022-08-03T07:45:26.775Z,25.12
2022-08-03T07:48:28.824Z,24.97
2022-08-03T07:51:30.671Z,25.17
2022-08-03T07:54:32.415Z,25.38
2022-08-03T07:57:35.033Z,25.56
2022-08-03T08:00:36.949Z,25.88
2022-08-03T08:03:42.002Z,26.20
2022-08-03T08:06:54.841Z,26.31
2022-08-03T08:09:56.681Z,26.01
2022-08-03T08:12:58.966Z,26.10
2022-08-03T08:16:01.235Z,26.31
2022-08-03T08:19:02.969Z,26.42
2022-08-03T08:22:06.629Z,26.64
2022-08-03T08:25:08.970Z,26.65
2022-08-03T08:28:31.452Z,27.01
2022-08-03T08:31:32.596Z,26.79
2022-08-03T08:34:34.324Z,27.00
2022-08-03T08:37:36.215Z,26.62
2022-08-03T08:40:38.001Z,27.11
2022-08-03T08:43:40.328Z,27.45
2022-08-03T08:46:42.903Z,27.15
2022-08-03T08:50:04.047Z,27.24
2022-08-03T08:53:17.533Z,27.42
2022-08-03T08:56:25.614Z,27.99
2022-08-03T08:59:27.932Z,27.88
2022-08-03T09:02:49.788Z,27.43
2022-08-03T09:05:56.300Z,27.66
2022-08-03T09:08:58.346Z,27.73
2022-08-03T09:12:14.614Z,28.12
2022-08-03T09:15:28.096Z,27.95
2022-08-03T09:18:33.377Z,27.78
2022-08-03T09:21:35.178Z,28.37
2022-08-03T09:24:41.593Z,28.35
2022-08-03T09:27:45.326Z,28.39
2022-08-03T09:30:59.681Z,28.79
2022-08-03T09:34:09.580Z,28.93
2022-08-03T09:37:16.448Z,28.95
2022-08-03T09:40:36.331Z,29.44
2022-08-03T09:43:47.171Z,29.54
2022-08-03T09:46:54.441Z,29.38
2022-08-03T09:50:07.883Z,28.77
2022-08-03T09:53:09.644Z,29.34
2022-08-03T09:56:35.257Z,29.72
2022-08-03T09:59:34.234Z,30.21
2022-08-03T10:02:37.792Z,29.60
2022-08-03T10:05:44.524Z,29.80
2022-08-03T10:09:14.178Z,30.48
2022-08-03T10:12:16.100Z,30.31
2022-08-03T10:16:21.916Z,29.61
2022-08-03T10:18:40.819Z,29.30
2022-08-03T10:21:53.616Z,29.81
2022-08-03T10:25:04.190Z,29.26
2022-08-03T10:28:08.111Z,29.45
2022-08-03T10:31:10.765Z,29.91
2022-08-03T10:34:19.293Z,29.70
2022-08-03T10:37:23.873Z,29.98
2022-08-03T10:43:56.726Z,30.13
2022-08-03T10:46:58.676Z,30.36
2022-08-03T10:50:01.358Z,30.60
2022-08-03T10:53:07.207Z,30.09
2022-08-03T10:56:54.693Z,30.31
2022-08-03T10:59:58.341Z,30.44
2022-08-03T11:03:06.708Z,30.54
2022-08-03T11:06:19.657Z,30.61
2022-08-03T11:09:21.566Z,31.08
2022-08-03T11:12:34.029Z,31.07
2022-08-03T11:15:36.075Z,30.70
2022-08-03T11:18:56.463Z,31.16
2022-08-03T11:21:59.217Z,31.17
2022-08-03T11:25:01.757Z,31.03
2022-08-03T11:28:27.050Z,31.06
2022-08-03T11:31:49.153Z,31.47
2022-08-03T11:35:07.369Z,31.10
2022-08-03T11:38:10.384Z,31.00
2022-08-03T11:41:43.308Z,31.33
2022-08-03T11:44:47.989Z,31.07
2022-08-03T11:47:54.645Z,31.14
2022-08-03T11:50:57.075Z,31.33
2022-08-03T11:54:03.961Z,31.40
2022-08-03T11:57:05.737Z,31.80
2022-08-03T12:00:26.751Z,31.60
2022-08-03T12:03:33.195Z,31.32
2022-08-03T12:06:54.980Z,31.45
2022-08-03T12:10:11.573Z,30.84
2022-08-03T12:13:56.797Z,31.23
2022-08-03T12:16:35.232Z,31.79
2022-08-03T12:19:43.862Z,31.37
2022-08-03T12:22:45.603Z,31.91
2022-08-03T12:25:49.504Z,31.59
2022-08-03T12:28:51.535Z,30.92
2022-08-03T12:31:53.310Z,31.04
2022-08-03T12:35:01.571Z,31.29
2022-08-03T12:38:03.809Z,32.06
2022-08-03T12:41:16.601Z,31.55
2022-08-03T12:44:18.540Z,31.36
2022-08-03T12:47:20.689Z,31.09
2022-08-03T12:50:28.701Z,31.13
2022-08-03T12:53:30.468Z,31.13
2022-08-03T12:56:32.342Z,31.95
2022-08-03T12:59:41.151Z,32.12
2022-08-03T13:02:46.369Z,32.10
2022-08-03T13:05:48.400Z,32.30
2022-08-03T13:09:02.293Z,31.84
2022-08-03T13:12:11.429Z,32.33
2022-08-03T13:15:13.404Z,32.35
2022-08-03T13:18:17.278Z,32.68
2022-08-03T13:21:20.799Z,31.63
2022-08-03T13:24:22.683Z,31.32
2022-08-03T13:28:10.997Z,31.68
2022-08-03T13:30:47.399Z,32.07
2022-08-03T13:33:49.155Z,32.17
2022-08-03T13:37:09.398Z,32.11
2022-08-03T13:40:11.918Z,31.58
2022-08-03T13:43:16.503Z,31.24
2022-08-03T13:46:18.284Z,31.31
2022-08-03T13:49:20.067Z,31.55
2022-08-03T13:52:21.810Z,31.31
2022-08-03T13:55:23.704Z,31.37
2022-08-03T13:58:25.479Z,31.79
2022-08-03T14:01:54.342Z,31.65
2022-08-03T14:04:49.164Z,31.59
2022-08-03T14:07:50.879Z,32.05
2022-08-03T14:10:58.779Z,31.48
2022-08-03T14:14:00.463Z,32.01
2022-08-03T14:17:02.228Z,31.83
2022-08-03T14:20:09.547Z,32.21
2022-08-03T14:23:28.073Z,31.84
2022-08-03T14:26:30.416Z,31.30
2022-08-03T14:29:32.244Z,31.37
2022-08-03T14:32:33.961Z,31.37
2022-08-03T14:35:35.849Z,31.57
2022-08-03T14:38:37.757Z,31.88
2022-08-03T14:41:39.654Z,32.03
2022-08-03T14:44:41.759Z,31.45
2022-08-03T14:50:24.538Z,31.39
2022-08-03T14:51:05.972Z,32.08
2022-08-03T14:54:07.703Z,31.61
2022-08-03T14:57:09.533Z,31.68
2022-08-03T15:00:11.938Z,31.74
2022-08-03T15:03:16.807Z,30.94
2022-08-03T15:06:19.188Z,31.38
2022-08-03T15:09:23.856Z,31.69
2022-08-03T15:12:26.248Z,31.31
2022-08-03T15:15:27.999Z,30.65
2022-08-03T15:18:29.751Z,31.46
2022-08-03T15:21:46.898Z,31.66
2022-08-03T15:24:49.774Z,31.69
2022-08-03T15:28:03.808Z,31.60
2022-08-03T15:31:06.756Z,31.48
2022-08-03T15:34:08.560Z,31.89
2022-08-03T15:37:16.221Z,31.37
2022-08-03T15:40:26.379Z,30.88
2022-08-03T15:43:28.192Z,30.29
2022-08-03T15:46:30.288Z,30.72
2022-08-03T15:49:32.643Z,31.06
2022-08-03T15:52:36.246Z,31.03
2022-08-03T15:55:38.088Z,31.32
2022-08-03T15:59:03.385Z,31.40
2022-08-03T16:02:01.954Z,31.34
2022-08-03T16:05:03.960Z,31.32
2022-08-03T16:08:10.297Z,30.89
2022-08-03T16:11:16.129Z,30.80
2022-08-03T16:14:34.818Z,30.72
2022-08-03T16:17:40.860Z,31.01
2022-08-03T16:20:42.683Z,31.19
2022-08-03T16:23:47.306Z,31.18
2022-08-03T16:26:49.395Z,31.10
2022-08-03T16:29:51.301Z,30.91
2022-08-03T16:32:53.032Z,30.88
2022-08-03T16:35:55.071Z,30.68
2022-08-03T16:38:56.896Z,30.72
2022-08-03T16:42:01.350Z,30.73
2022-08-03T16:45:04.347Z,30.77
2022-08-03T16:48:06.337Z,30.47
2022-08-03T16:51:08.192Z,30.41
2022-08-03T16:54:12.388Z,30.19
2022-08-03T16:57:15.864Z,29.99
2022-08-03T17:00:34.149Z,29.65
2022-08-03T17:03:57.383Z,29.73
2022-08-03T17:07:02.931Z,29.54
2022-08-03T17:10:06.853Z,29.31
2022-08-03T17:13:08.694Z,29.11
2022-08-03T17:16:12.145Z,29.17
2022-08-03T17:19:18.143Z,29.11
2022-08-03T17:22:24.652Z,29.19
2022-08-03T17:25:51.441Z,30.45
2022-08-03T17:28:58.142Z,31.63
2022-08-03T17:32:06.521Z,32.15
2022-08-03T17:35:11.337Z,32.51
2022-08-03T17:38:17.480Z,32.53
2022-08-03T17:41:23.320Z,32.63
2022-08-03T17:44:33.058Z,32.38
2022-08-03T17:47:57.605Z,31.36
2022-08-03T17:51:06.660Z,30.07
2022-08-03T17:54:23.808Z,29.16
2022-08-03T17:58:01.352Z,28.49
2022-08-03T18:02:00.164Z,27.96
2022-08-03T18:04:57.297Z,27.49
2022-08-03T18:08:04.917Z,27.16
2022-08-03T18:11:14.434Z,26.86
2022-08-03T18:14:29.833Z,26.59
2022-08-03T18:17:54.978Z,26.26
2022-08-03T18:21:16.688Z,26.01
2022-08-03T18:24:20.060Z,25.81
2022-08-03T18:27:42.387Z,25.58
2022-08-03T18:32:03.053Z,25.33
2022-08-03T18:35:28.306Z,25.05
2022-08-03T18:38:55.690Z,24.81
2022-08-03T18:42:05.508Z,24.66
2022-08-03T18:45:15.062Z,24.52
2022-08-03T18:53:23.680Z,24.13
2022-08-03T18:57:10.060Z,24.02
2022-08-03T19:00:24.426Z,23.85
2022-08-03T19:04:06.196Z,23.64
2022-08-03T19:07:27.259Z,23.41
2022-08-03T19:10:36.878Z,23.30
2022-08-03T19:13:50.282Z,23.19
2022-08-03T19:17:00.111Z,23.01
2022-08-03T19:20:05.439Z,22.84
2022-08-03T19:23:08.220Z,22.80
2022-08-03T19:26:29.950Z,22.66
2022-08-03T19:29:59.387Z,22.55
2022-08-03T19:33:05.001Z,22.42
2022-08-03T19:36:27.311Z,22.27
2022-08-03T19:39:36.149Z,22.13
2022-08-03T19:42:50.379Z,21.99
2022-08-03T19:50:06.283Z,21.75
2022-08-03T19:53:16.152Z,21.66
2022-08-03T19:56:22.984Z,21.60
2022-08-03T19:59:36.758Z,21.55
2022-08-03T20:02:41.542Z,21.45
2022-08-03T20:05:52.313Z,21.30
2022-08-03T20:08:57.619Z,21.00
2022-08-03T20:12:00.488Z,20.84
2022-08-03T20:15:04.295Z,20.77
2022-08-03T20:18:06.098Z,20.78
2022-08-03T20:21:19.888Z,20.81
2022-08-03T20:24:29.358Z,20.75
2022-08-03T20:28:07.082Z,20.65
2022-08-03T20:31:09.342Z,20.42
2022-08-03T20:34:11.119Z,20.32
2022-08-03T20:37:19.308Z,20.29
2022-08-03T20:40:23.075Z,20.21
2022-08-03T20:43:29.316Z,20.18
2022-08-03T20:46:46.474Z,20.03
2022-08-03T20:49:54.243Z,19.96
2022-08-03T20:52:59.036Z,19.87
2022-08-03T20:56:04.812Z,19.74
2022-08-03T20:59:14.874Z,19.64
2022-08-03T21:02:19.805Z,19.54
2022-08-03T21:05:48.298Z,19.17
2022-08-03T21:09:00.061Z,19.01
2022-08-03T21:12:03.657Z,19.01
2022-08-03T21:15:09.346Z,19.02
2022-08-03T21:18:20.296Z,18.98
2022-08-03T21:21:23.531Z,18.95
2022-08-03T21:24:30.593Z,18.92
2022-08-03T21:27:32.656Z,18.88
2022-08-03T21:30:35.166Z,18.78
2022-08-03T21:33:36.978Z,18.77
2022-08-03T21:36:38.780Z,18.75
2022-08-03T21:39:50.840Z,18.73
2022-08-03T21:42:52.919Z,18.65
2022-08-03T21:46:03.112Z,18.61
2022-08-03T21:49:51.958Z,18.56
2022-08-03T21:52:40.435Z,18.47
2022-08-03T21:55:57.782Z,18.42
2022-08-03T21:59:16.144Z,18.35
2022-08-03T22:02:24.249Z,18.30
2022-08-03T22:05:42.910Z,18.26
2022-08-03T22:08:47.518Z,18.28
2022-08-03T22:11:54.013Z,18.25
2022-08-03T22:15:01.054Z,18.23
2022-08-03T22:18:04.263Z,18.16
2022-08-03T22:21:09.044Z,18.09
2022-08-03T22:24:11.552Z,18.04
2022-08-03T22:27:30.137Z,18.00
2022-08-03T22:30:33.279Z,17.94
2022-08-03T22:33:36.482Z,17.84
2022-08-03T22:36:40.572Z,17.81
2022-08-03T22:39:43.762Z,17.76
2022-08-03T22:42:47.481Z,17.73
2022-08-03T22:46:10.208Z,17.72
2022-08-03T22:49:16.415Z,17.64
2022-08-03T22:52:18.413Z,17.56
2022-08-03T22:55:24.801Z,17.47
2022-08-03T22:58:26.832Z,17.43
2022-08-03T23:01:33.028Z,17.42
2022-08-03T23:04:39.174Z,17.43
2022-08-03T23:07:41.712Z,17.41
2022-08-03T23:10:47.239Z,17.35
2022-08-03T23:13:53.422Z,17.26
2022-08-03T23:16:56.292Z,17.24
2022-08-03T23:20:08.916Z,17.14
2022-08-03T23:23:11.529Z,17.04
2022-08-03T23:26:16.185Z,17.01
2022-08-03T23:29:20.372Z,17.02
2022-08-03T23:32:25.074Z,16.97
2022-08-03T23:36:29.668Z,16.94
2022-08-03T23:39:08.711Z,16.88
2022-08-03T23:42:13.107Z,16.83
2022-08-03T23:45:18.280Z,16.79
2022-08-03T23:48:20.010Z,16.75
2022-08-03T23:52:09.142Z,16.73
2022-08-03T23:55:22.057Z,16.66
2022-08-03T23:58:45.040Z,16.58
